Aérodrome :
LOGIN :

S'inscrire | Disclaimer

   EN    FR    IT 

 










Légende :    VFR   VFR Marginal   IFR   IFR Intensif   IFR Très Intensif
Visi : 
Plafond : 
>= 8 km
>= 3000ft
5 à 8 km
1000 à 3000 ft
1500m à 5 km
500 à 1000 ft
800 à 1500m
200 à 500 ft
< 800m
< 200 ft
Symboles :   Orages  Brouillard  Fortes neiges  Fortes précipitations  Vent > 20 kt
SIGMETs :   Divers  Orages  Givrage  Turbulence  Onde Orograph.  Cendres Volcan.






- Altitude de l'aérodrome : 277 ft
- Code IATA : JER


EGJJ - Jersey

DERNIER METAR :
  • 150820Z 23014KT 9999 FEW012 SCT016 13/10 Q1004

METARs EXPIRÉS :
  • 150750Z 23012KT 9999 FEW017 SCT020 13/11 Q1004
  • 150720Z 22012KT 9999 FEW018 SCT020 13/11 Q1004
  • 150650Z 22011KT 9999 FEW015 BKN017 12/11 Q1004
  • 150620Z 22011KT 9999 FEW015 BKN017 12/11 Q1004
  • 150550Z 22011KT 9999 FEW013 SCT015 12/11 Q1004

TAF TAF EGJJ
Valide du 15 à 06h jusqu'au 15 à 15h UTC


150458Z 1506/1515 22012KT 9999 FEW012
TEMPO 1506/1512 24016G26KT 9000 -SHRA BKN012
PROB30
TEMPO 1506/1514 5000 SHRA BKN012CB
BECMG 1511/1513 27020KT
ATIS : +44 1534 498 073



MET'MAP, la Météo Aéronautique d'un coup d'oeil ! - Copyright ORBIFLY Décembre 2007 - Disclaimer

ORBIFLY MET'MAP TEAM :

Programmation & Développement : Alexandra Zaïnal
Conception & Développement : Baudouin d'Aumeries
Co-Programmation & Développement : Marc-Olivier Méhu
Soutien technique & logistique : Manuel Goepfert

Contact : metmap@orbifly.com




SOURCES & CREDITS :

   NOAA